sensor_id;sensor_type;location;lat;lon;timestamp;P1;durP1;ratioP1;P2;durP2;ratioP2
14603;SDS011;7388;51.078;13.740;2022-09-17T00:00:57;5.63;;;1.30;;
14603;SDS011;7388;51.078;13.740;2022-09-17T00:03:23;5.07;;;1.70;;
14603;SDS011;7388;51.078;13.740;2022-09-17T00:05:57;3.70;;;1.58;;
14603;SDS011;7388;51.078;13.740;2022-09-17T00:08:27;6.03;;;1.30;;
14603;SDS011;7388;51.078;13.740;2022-09-17T00:10:53;2.40;;;1.63;;
14603;SDS011;7388;51.078;13.740;2022-09-17T00:13:19;3.13;;;1.67;;
14603;SDS011;7388;51.078;13.740;2022-09-17T00:15:45;3.40;;;2.20;;
14603;SDS011;7388;51.078;13.740;2022-09-17T00:18:11;4.03;;;1.45;;
14603;SDS011;7388;51.078;13.740;2022-09-17T00:20:39;4.75;;;2.22;;
14603;SDS011;7388;51.078;13.740;2022-09-17T00:23:07;3.83;;;1.50;;
14603;SDS011;7388;51.078;13.740;2022-09-17T00:25:34;4.65;;;1.80;;
14603;SDS011;7388;51.078;13.740;2022-09-17T00:28:06;3.20;;;1.27;;
14603;SDS011;7388;51.078;13.740;2022-09-17T00:30:32;3.53;;;1.50;;
14603;SDS011;7388;51.078;13.740;2022-09-17T00:32:58;2.85;;;1.67;;
14603;SDS011;7388;51.078;13.740;2022-09-17T00:35:24;6.90;;;1.93;;
14603;SDS011;7388;51.078;13.740;2022-09-17T00:37:51;3.22;;;1.30;;
14603;SDS011;7388;51.078;13.740;2022-09-17T00:40:17;2.60;;;1.50;;
14603;SDS011;7388;51.078;13.740;2022-09-17T00:42:44;2.83;;;1.23;;
14603;SDS011;7388;51.078;13.740;2022-09-17T00:45:10;3.55;;;1.67;;
14603;SDS011;7388;51.078;13.740;2022-09-17T00:47:37;3.65;;;2.10;;
14603;SDS011;7388;51.078;13.740;2022-09-17T00:50:17;3.15;;;1.30;;
14603;SDS011;7388;51.078;13.740;2022-09-17T00:53:11;5.68;;;2.28;;
14603;SDS011;7388;51.078;13.740;2022-09-17T00:55:41;9.07;;;2.20;;
14603;SDS011;7388;51.078;13.740;2022-09-17T00:58:14;4.95;;;1.30;;
14603;SDS011;7388;51.078;13.740;2022-09-17T01:00:42;3.33;;;1.30;;
14603;SDS011;7388;51.078;13.740;2022-09-17T01:03:11;8.90;;;1.45;;
14603;SDS011;7388;51.078;13.740;2022-09-17T01:16:22;3.00;;;1.25;;
14603;SDS011;7388;51.078;13.740;2022-09-17T01:19:21;5.47;;;1.50;;
14603;SDS011;7388;51.078;13.740;2022-09-17T01:22:19;5.60;;;1.35;;
14603;SDS011;7388;51.078;13.740;2022-09-17T01:33:38;3.28;;;1.70;;
14603;SDS011;7388;51.078;13.740;2022-09-17T01:41:31;2.40;;;1.35;;
14603;SDS011;7388;51.078;13.740;2022-09-17T01:46:46;5.65;;;1.48;;
14603;SDS011;7388;51.078;13.740;2022-09-17T01:49:17;6.68;;;1.60;;
14603;SDS011;7388;51.078;13.740;2022-09-17T01:51:46;3.20;;;1.08;;
14603;SDS011;7388;51.078;13.740;2022-09-17T01:54:28;5.97;;;1.60;;
14603;SDS011;7388;51.078;13.740;2022-09-17T01:57:03;4.70;;;2.10;;
14603;SDS011;7388;51.078;13.740;2022-09-17T01:59:56;5.72;;;1.80;;
14603;SDS011;7388;51.078;13.740;2022-09-17T02:02:28;7.82;;;1.30;;
14603;SDS011;7388;51.078;13.740;2022-09-17T02:07:32;3.40;;;1.60;;
14603;SDS011;7388;51.078;13.740;2022-09-17T02:10:06;4.35;;;1.40;;
14603;SDS011;7388;51.078;13.740;2022-09-17T02:12:38;2.70;;;2.20;;
14603;SDS011;7388;51.078;13.740;2022-09-17T02:15:17;4.13;;;1.35;;
14603;SDS011;7388;51.078;13.740;2022-09-17T02:18:02;4.75;;;2.05;;
14603;SDS011;7388;51.078;13.740;2022-09-17T02:20:40;5.13;;;2.90;;
14603;SDS011;7388;51.078;13.740;2022-09-17T02:23:14;3.60;;;1.33;;
14603;SDS011;7388;51.078;13.740;2022-09-17T02:25:49;2.45;;;1.02;;
14603;SDS011;7388;51.078;13.740;2022-09-17T02:28:23;5.03;;;2.17;;
14603;SDS011;7388;51.078;13.740;2022-09-17T02:30:56;3.22;;;1.85;;
14603;SDS011;7388;51.078;13.740;2022-09-17T02:33:22;2.13;;;1.30;;
14603;SDS011;7388;51.078;13.740;2022-09-17T02:35:49;4.82;;;1.20;;
14603;SDS011;7388;51.078;13.740;2022-09-17T02:38:23;2.42;;;1.40;;
14603;SDS011;7388;51.078;13.740;2022-09-17T02:40:51;2.03;;;1.40;;
14603;SDS011;7388;51.078;13.740;2022-09-17T02:43:37;2.60;;;1.48;;
14603;SDS011;7388;51.078;13.740;2022-09-17T02:46:23;6.40;;;1.50;;
14603;SDS011;7388;51.078;13.740;2022-09-17T02:54:46;4.03;;;1.45;;
14603;SDS011;7388;51.078;13.740;2022-09-17T03:00:13;4.90;;;1.25;;
14603;SDS011;7388;51.078;13.740;2022-09-17T03:05:13;3.50;;;1.50;;
14603;SDS011;7388;51.078;13.740;2022-09-17T03:07:42;3.03;;;1.60;;
14603;SDS011;7388;51.078;13.740;2022-09-17T03:10:08;4.03;;;1.40;;
14603;SDS011;7388;51.078;13.740;2022-09-17T03:12:34;3.83;;;1.77;;
14603;SDS011;7388;51.078;13.740;2022-09-17T03:15:01;3.38;;;1.67;;
14603;SDS011;7388;51.078;13.740;2022-09-17T03:17:28;3.80;;;1.40;;
14603;SDS011;7388;51.078;13.740;2022-09-17T03:19:54;2.40;;;1.60;;
14603;SDS011;7388;51.078;13.740;2022-09-17T03:22:19;5.30;;;1.50;;
14603;SDS011;7388;51.078;13.740;2022-09-17T03:24:45;2.60;;;1.13;;
14603;SDS011;7388;51.078;13.740;2022-09-17T03:27:11;4.07;;;1.30;;
14603;SDS011;7388;51.078;13.740;2022-09-17T03:29:37;4.73;;;1.93;;
14603;SDS011;7388;51.078;13.740;2022-09-17T03:32:03;2.27;;;1.70;;
14603;SDS011;7388;51.078;13.740;2022-09-17T03:34:29;10.18;;;2.55;;
14603;SDS011;7388;51.078;13.740;2022-09-17T03:36:55;3.20;;;1.23;;
14603;SDS011;7388;51.078;13.740;2022-09-17T03:39:21;3.63;;;1.03;;
14603;SDS011;7388;51.078;13.740;2022-09-17T03:41:47;3.25;;;1.27;;
14603;SDS011;7388;51.078;13.740;2022-09-17T03:44:12;4.83;;;1.40;;
14603;SDS011;7388;51.078;13.740;2022-09-17T03:46:39;4.72;;;1.67;;
14603;SDS011;7388;51.078;13.740;2022-09-17T03:49:05;2.95;;;1.00;;
14603;SDS011;7388;51.078;13.740;2022-09-17T03:51:32;3.17;;;1.77;;
14603;SDS011;7388;51.078;13.740;2022-09-17T03:53:58;9.50;;;1.87;;
14603;SDS011;7388;51.078;13.740;2022-09-17T03:56:24;2.93;;;1.70;;
14603;SDS011;7388;51.078;13.740;2022-09-17T03:58:50;2.65;;;1.50;;
14603;SDS011;7388;51.078;13.740;2022-09-17T04:01:20;2.03;;;1.20;;
14603;SDS011;7388;51.078;13.740;2022-09-17T04:03:46;3.23;;;1.47;;
14603;SDS011;7388;51.078;13.740;2022-09-17T04:06:12;1.70;;;1.07;;
14603;SDS011;7388;51.078;13.740;2022-09-17T04:08:37;3.30;;;1.70;;
14603;SDS011;7388;51.078;13.740;2022-09-17T04:11:03;3.77;;;1.93;;
14603;SDS011;7388;51.078;13.740;2022-09-17T04:13:29;2.83;;;1.42;;
14603;SDS011;7388;51.078;13.740;2022-09-17T04:15:55;3.40;;;2.27;;
14603;SDS011;7388;51.078;13.740;2022-09-17T04:18:21;5.53;;;1.73;;
14603;SDS011;7388;51.078;13.740;2022-09-17T04:20:46;2.30;;;1.33;;
14603;SDS011;7388;51.078;13.740;2022-09-17T04:23:12;5.40;;;2.10;;
14603;SDS011;7388;51.078;13.740;2022-09-17T04:25:38;4.93;;;1.67;;
14603;SDS011;7388;51.078;13.740;2022-09-17T04:28:04;3.07;;;1.90;;
14603;SDS011;7388;51.078;13.740;2022-09-17T04:30:30;3.90;;;1.40;;
14603;SDS011;7388;51.078;13.740;2022-09-17T04:32:55;3.40;;;1.40;;
14603;SDS011;7388;51.078;13.740;2022-09-17T04:35:21;4.40;;;1.70;;
14603;SDS011;7388;51.078;13.740;2022-09-17T04:37:53;8.00;;;2.20;;
14603;SDS011;7388;51.078;13.740;2022-09-17T04:40:20;2.20;;;1.60;;
14603;SDS011;7388;51.078;13.740;2022-09-17T04:42:47;2.40;;;1.40;;
14603;SDS011;7388;51.078;13.740;2022-09-17T04:45:13;3.30;;;1.20;;
14603;SDS011;7388;51.078;13.740;2022-09-17T04:47:39;9.10;;;1.93;;
14603;SDS011;7388;51.078;13.740;2022-09-17T04:50:05;2.20;;;1.20;;
14603;SDS011;7388;51.078;13.740;2022-09-17T04:52:31;6.10;;;2.10;;
14603;SDS011;7388;51.078;13.740;2022-09-17T04:54:57;3.67;;;2.47;;
14603;SDS011;7388;51.078;13.740;2022-09-17T04:57:23;3.30;;;1.80;;
14603;SDS011;7388;51.078;13.740;2022-09-17T04:59:50;5.28;;;1.90;;
14603;SDS011;7388;51.078;13.740;2022-09-17T05:02:16;4.90;;;2.13;;
14603;SDS011;7388;51.078;13.740;2022-09-17T05:04:42;2.70;;;1.83;;
14603;SDS011;7388;51.078;13.740;2022-09-17T05:07:07;2.27;;;2.07;;
14603;SDS011;7388;51.078;13.740;2022-09-17T05:09:33;4.53;;;1.90;;
14603;SDS011;7388;51.078;13.740;2022-09-17T05:11:59;2.23;;;2.00;;
14603;SDS011;7388;51.078;13.740;2022-09-17T05:14:25;2.10;;;1.70;;
14603;SDS011;7388;51.078;13.740;2022-09-17T05:16:50;3.77;;;1.83;;
14603;SDS011;7388;51.078;13.740;2022-09-17T05:19:16;5.57;;;2.10;;
14603;SDS011;7388;51.078;13.740;2022-09-17T05:21:42;5.80;;;2.28;;
14603;SDS011;7388;51.078;13.740;2022-09-17T05:24:08;6.03;;;2.37;;
14603;SDS011;7388;51.078;13.740;2022-09-17T05:26:34;2.47;;;2.07;;
14603;SDS011;7388;51.078;13.740;2022-09-17T05:28:59;4.73;;;1.97;;
14603;SDS011;7388;51.078;13.740;2022-09-17T05:31:25;2.63;;;1.70;;
14603;SDS011;7388;51.078;13.740;2022-09-17T05:33:51;2.20;;;2.00;;
14603;SDS011;7388;51.078;13.740;2022-09-17T05:36:17;4.00;;;1.80;;
14603;SDS011;7388;51.078;13.740;2022-09-17T05:38:42;3.33;;;2.20;;
14603;SDS011;7388;51.078;13.740;2022-09-17T05:41:08;4.23;;;1.93;;
14603;SDS011;7388;51.078;13.740;2022-09-17T05:43:34;4.13;;;2.37;;
14603;SDS011;7388;51.078;13.740;2022-09-17T05:46:00;3.60;;;2.30;;
14603;SDS011;7388;51.078;13.740;2022-09-17T05:48:30;3.45;;;1.70;;
14603;SDS011;7388;51.078;13.740;2022-09-17T05:50:56;2.70;;;2.05;;
14603;SDS011;7388;51.078;13.740;2022-09-17T05:53:22;9.35;;;3.75;;
14603;SDS011;7388;51.078;13.740;2022-09-17T05:55:48;2.80;;;2.23;;
14603;SDS011;7388;51.078;13.740;2022-09-17T05:58:15;2.77;;;2.27;;
14603;SDS011;7388;51.078;13.740;2022-09-17T06:00:43;5.00;;;2.38;;
14603;SDS011;7388;51.078;13.740;2022-09-17T06:03:10;3.97;;;1.85;;
14603;SDS011;7388;51.078;13.740;2022-09-17T06:05:37;2.65;;;2.00;;
14603;SDS011;7388;51.078;13.740;2022-09-17T06:08:04;2.38;;;1.95;;
14603;SDS011;7388;51.078;13.740;2022-09-17T06:10:30;2.53;;;2.00;;
14603;SDS011;7388;51.078;13.740;2022-09-17T06:12:56;3.35;;;2.42;;
14603;SDS011;7388;51.078;13.740;2022-09-17T06:15:24;3.88;;;2.28;;
14603;SDS011;7388;51.078;13.740;2022-09-17T06:17:50;3.20;;;2.30;;
14603;SDS011;7388;51.078;13.740;2022-09-17T06:20:16;2.38;;;1.77;;
14603;SDS011;7388;51.078;13.740;2022-09-17T06:22:43;3.00;;;1.90;;
14603;SDS011;7388;51.078;13.740;2022-09-17T06:25:12;2.58;;;1.58;;
14603;SDS011;7388;51.078;13.740;2022-09-17T06:27:37;3.93;;;1.97;;
14603;SDS011;7388;51.078;13.740;2022-09-17T06:30:03;3.43;;;2.10;;
14603;SDS011;7388;51.078;13.740;2022-09-17T06:32:31;1.50;;;1.27;;
14603;SDS011;7388;51.078;13.740;2022-09-17T06:34:57;3.08;;;1.80;;
14603;SDS011;7388;51.078;13.740;2022-09-17T06:37:27;2.83;;;1.40;;
14603;SDS011;7388;51.078;13.740;2022-09-17T06:39:54;1.90;;;1.63;;
14603;SDS011;7388;51.078;13.740;2022-09-17T06:42:20;1.70;;;1.30;;
14603;SDS011;7388;51.078;13.740;2022-09-17T06:44:45;1.90;;;1.30;;
14603;SDS011;7388;51.078;13.740;2022-09-17T06:47:11;2.97;;;1.60;;
14603;SDS011;7388;51.078;13.740;2022-09-17T06:49:37;1.53;;;1.43;;
14603;SDS011;7388;51.078;13.740;2022-09-17T06:52:03;1.60;;;1.00;;
14603;SDS011;7388;51.078;13.740;2022-09-17T06:54:28;2.37;;;0.90;;
14603;SDS011;7388;51.078;13.740;2022-09-17T06:56:55;1.50;;;1.02;;
14603;SDS011;7388;51.078;13.740;2022-09-17T06:59:20;1.50;;;0.97;;
14603;SDS011;7388;51.078;13.740;2022-09-17T07:01:46;1.80;;;1.10;;
14603;SDS011;7388;51.078;13.740;2022-09-17T07:04:13;1.73;;;0.90;;
14603;SDS011;7388;51.078;13.740;2022-09-17T07:06:38;1.80;;;1.00;;
14603;SDS011;7388;51.078;13.740;2022-09-17T07:09:04;2.03;;;1.10;;
14603;SDS011;7388;51.078;13.740;2022-09-17T07:11:31;1.30;;;0.90;;
14603;SDS011;7388;51.078;13.740;2022-09-17T07:13:57;1.40;;;1.00;;
14603;SDS011;7388;51.078;13.740;2022-09-17T07:16:23;1.60;;;1.02;;
14603;SDS011;7388;51.078;13.740;2022-09-17T07:18:50;1.67;;;1.20;;
14603;SDS011;7388;51.078;13.740;2022-09-17T07:21:17;2.88;;;1.30;;
14603;SDS011;7388;51.078;13.740;2022-09-17T07:23:43;2.00;;;1.27;;
14603;SDS011;7388;51.078;13.740;2022-09-17T07:26:13;3.05;;;1.50;;
14603;SDS011;7388;51.078;13.740;2022-09-17T07:28:39;1.88;;;1.13;;
14603;SDS011;7388;51.078;13.740;2022-09-17T07:31:06;1.85;;;1.60;;
14603;SDS011;7388;51.078;13.740;2022-09-17T07:33:33;4.32;;;2.00;;
14603;SDS011;7388;51.078;13.740;2022-09-17T07:36:01;2.00;;;1.65;;
14603;SDS011;7388;51.078;13.740;2022-09-17T07:38:28;4.10;;;2.13;;
14603;SDS011;7388;51.078;13.740;2022-09-17T07:40:58;2.65;;;2.38;;
14603;SDS011;7388;51.078;13.740;2022-09-17T07:43:30;6.07;;;2.70;;
14603;SDS011;7388;51.078;13.740;2022-09-17T07:45:57;4.95;;;3.47;;
14603;SDS011;7388;51.078;13.740;2022-09-17T07:48:25;3.60;;;2.40;;
14603;SDS011;7388;51.078;13.740;2022-09-17T07:50:51;6.25;;;4.55;;
14603;SDS011;7388;51.078;13.740;2022-09-17T07:53:17;3.30;;;3.00;;
14603;SDS011;7388;51.078;13.740;2022-09-17T07:55:53;8.90;;;3.58;;
14603;SDS011;7388;51.078;13.740;2022-09-17T07:58:21;9.13;;;4.15;;
14603;SDS011;7388;51.078;13.740;2022-09-17T08:00:48;6.32;;;4.70;;
14603;SDS011;7388;51.078;13.740;2022-09-17T08:03:14;9.10;;;4.65;;
14603;SDS011;7388;51.078;13.740;2022-09-17T08:05:40;5.18;;;4.07;;
14603;SDS011;7388;51.078;13.740;2022-09-17T08:08:06;7.93;;;4.53;;
14603;SDS011;7388;51.078;13.740;2022-09-17T08:10:32;7.23;;;4.13;;
14603;SDS011;7388;51.078;13.740;2022-09-17T08:12:58;5.23;;;4.40;;
14603;SDS011;7388;51.078;13.740;2022-09-17T08:15:24;10.20;;;4.50;;
14603;SDS011;7388;51.078;13.740;2022-09-17T08:17:50;9.38;;;4.75;;
14603;SDS011;7388;51.078;13.740;2022-09-17T08:20:15;11.53;;;4.90;;
14603;SDS011;7388;51.078;13.740;2022-09-17T08:22:42;8.75;;;4.57;;
14603;SDS011;7388;51.078;13.740;2022-09-17T08:25:08;6.70;;;4.43;;
14603;SDS011;7388;51.078;13.740;2022-09-17T08:27:35;7.47;;;4.20;;
14603;SDS011;7388;51.078;13.740;2022-09-17T08:30:05;8.23;;;4.32;;
14603;SDS011;7388;51.078;13.740;2022-09-17T08:32:31;9.18;;;5.57;;
14603;SDS011;7388;51.078;13.740;2022-09-17T08:34:57;10.67;;;4.57;;
14603;SDS011;7388;51.078;13.740;2022-09-17T08:37:23;7.33;;;4.17;;
14603;SDS011;7388;51.078;13.740;2022-09-17T08:39:49;7.80;;;3.97;;
14603;SDS011;7388;51.078;13.740;2022-09-17T08:44:46;7.00;;;3.80;;
14603;SDS011;7388;51.078;13.740;2022-09-17T08:47:14;6.10;;;3.85;;
14603;SDS011;7388;51.078;13.740;2022-09-17T08:49:49;8.88;;;3.72;;
14603;SDS011;7388;51.078;13.740;2022-09-17T08:55:26;10.90;;;4.45;;
14603;SDS011;7388;51.078;13.740;2022-09-17T09:06:36;14.27;;;5.60;;
14603;SDS011;7388;51.078;13.740;2022-09-17T09:09:15;7.57;;;3.83;;
14603;SDS011;7388;51.078;13.740;2022-09-17T09:11:45;6.75;;;3.65;;
14603;SDS011;7388;51.078;13.740;2022-09-17T09:14:26;5.45;;;3.42;;
14603;SDS011;7388;51.078;13.740;2022-09-17T09:16:57;5.25;;;4.05;;
14603;SDS011;7388;51.078;13.740;2022-09-17T09:19:28;10.52;;;4.13;;
14603;SDS011;7388;51.078;13.740;2022-09-17T09:22:01;7.85;;;3.53;;
14603;SDS011;7388;51.078;13.740;2022-09-17T09:27:03;4.90;;;4.18;;
14603;SDS011;7388;51.078;13.740;2022-09-17T09:35:01;6.90;;;2.83;;
14603;SDS011;7388;51.078;13.740;2022-09-17T09:37:38;7.25;;;2.53;;
14603;SDS011;7388;51.078;13.740;2022-09-17T09:42:59;5.50;;;3.05;;
14603;SDS011;7388;51.078;13.740;2022-09-17T09:45:34;9.30;;;2.83;;
14603;SDS011;7388;51.078;13.740;2022-09-17T09:49:04;2.83;;;1.55;;
14603;SDS011;7388;51.078;13.740;2022-09-17T09:57:03;3.58;;;1.88;;
14603;SDS011;7388;51.078;13.740;2022-09-17T10:00:15;7.88;;;2.58;;
14603;SDS011;7388;51.078;13.740;2022-09-17T10:03:35;6.13;;;1.65;;
14603;SDS011;7388;51.078;13.740;2022-09-17T10:08:22;4.45;;;2.10;;
14603;SDS011;7388;51.078;13.740;2022-09-17T10:10:56;5.38;;;2.10;;
14603;SDS011;7388;51.078;13.740;2022-09-17T10:13:30;4.10;;;2.17;;
14603;SDS011;7388;51.078;13.740;2022-09-17T10:16:08;4.97;;;1.75;;
14603;SDS011;7388;51.078;13.740;2022-09-17T10:18:47;2.50;;;1.40;;
14603;SDS011;7388;51.078;13.740;2022-09-17T10:21:18;3.13;;;1.20;;
14603;SDS011;7388;51.078;13.740;2022-09-17T10:23:45;5.70;;;2.47;;
14603;SDS011;7388;51.078;13.740;2022-09-17T10:26:24;6.10;;;1.50;;
14603;SDS011;7388;51.078;13.740;2022-09-17T10:28:57;4.40;;;1.55;;
14603;SDS011;7388;51.078;13.740;2022-09-17T10:31:26;6.75;;;1.70;;
14603;SDS011;7388;51.078;13.740;2022-09-17T10:34:00;2.40;;;1.67;;
14603;SDS011;7388;51.078;13.740;2022-09-17T10:36:37;6.13;;;1.63;;
14603;SDS011;7388;51.078;13.740;2022-09-17T10:44:21;4.45;;;1.50;;
14603;SDS011;7388;51.078;13.740;2022-09-17T10:46:48;8.77;;;2.97;;
14603;SDS011;7388;51.078;13.740;2022-09-17T10:52:05;6.55;;;1.60;;
14603;SDS011;7388;51.078;13.740;2022-09-17T10:54:43;7.72;;;1.48;;
14603;SDS011;7388;51.078;13.740;2022-09-17T11:09:40;3.10;;;1.52;;
14603;SDS011;7388;51.078;13.740;2022-09-17T11:15:27;6.05;;;2.00;;
14603;SDS011;7388;51.078;13.740;2022-09-17T11:39:50;4.97;;;2.20;;
14603;SDS011;7388;51.078;13.740;2022-09-17T11:42:27;18.52;;;2.95;;
14603;SDS011;7388;51.078;13.740;2022-09-17T11:45:03;3.67;;;1.42;;
14603;SDS011;7388;51.078;13.740;2022-09-17T11:47:43;5.95;;;1.80;;
14603;SDS011;7388;51.078;13.740;2022-09-17T11:50:36;5.20;;;2.10;;
14603;SDS011;7388;51.078;13.740;2022-09-17T11:58:16;6.22;;;2.55;;
14603;SDS011;7388;51.078;13.740;2022-09-17T12:00:48;4.20;;;2.05;;
14603;SDS011;7388;51.078;13.740;2022-09-17T12:05:57;2.60;;;1.90;;
14603;SDS011;7388;51.078;13.740;2022-09-17T12:08:29;4.97;;;1.83;;
14603;SDS011;7388;51.078;13.740;2022-09-17T12:13:49;2.80;;;1.25;;
14603;SDS011;7388;51.078;13.740;2022-09-17T12:17:19;4.45;;;1.60;;
14603;SDS011;7388;51.078;13.740;2022-09-17T12:21:53;3.67;;;1.75;;
14603;SDS011;7388;51.078;13.740;2022-09-17T12:40:34;3.65;;;2.22;;
14603;SDS011;7388;51.078;13.740;2022-09-17T12:46:15;10.10;;;2.45;;
14603;SDS011;7388;51.078;13.740;2022-09-17T12:49:16;7.57;;;2.13;;
14603;SDS011;7388;51.078;13.740;2022-09-17T13:00:07;2.83;;;1.70;;
14603;SDS011;7388;51.078;13.740;2022-09-17T13:02:40;7.38;;;2.33;;
14603;SDS011;7388;51.078;13.740;2022-09-17T13:16:20;3.10;;;1.63;;
14603;SDS011;7388;51.078;13.740;2022-09-17T13:21:59;4.95;;;2.08;;
14603;SDS011;7388;51.078;13.740;2022-09-17T13:24:31;3.85;;;1.67;;
14603;SDS011;7388;51.078;13.740;2022-09-17T13:26:58;3.58;;;1.55;;
14603;SDS011;7388;51.078;13.740;2022-09-17T13:32:12;1.83;;;0.90;;
14603;SDS011;7388;51.078;13.740;2022-09-17T13:40:42;6.97;;;1.75;;
14603;SDS011;7388;51.078;13.740;2022-09-17T13:43:10;4.40;;;1.10;;
14603;SDS011;7388;51.078;13.740;2022-09-17T13:48:28;3.90;;;1.52;;
14603;SDS011;7388;51.078;13.740;2022-09-17T13:51:40;2.90;;;1.30;;
14603;SDS011;7388;51.078;13.740;2022-09-17T13:54:02;3.88;;;1.80;;
14603;SDS011;7388;51.078;13.740;2022-09-17T13:56:41;3.40;;;1.42;;
14603;SDS011;7388;51.078;13.740;2022-09-17T13:59:20;6.47;;;1.30;;
14603;SDS011;7388;51.078;13.740;2022-09-17T14:15:02;7.10;;;1.48;;
14603;SDS011;7388;51.078;13.740;2022-09-17T14:17:49;4.80;;;2.00;;
14603;SDS011;7388;51.078;13.740;2022-09-17T14:20:17;6.67;;;1.77;;
14603;SDS011;7388;51.078;13.740;2022-09-17T14:22:53;5.22;;;2.17;;
14603;SDS011;7388;51.078;13.740;2022-09-17T14:25:21;5.47;;;1.90;;
14603;SDS011;7388;51.078;13.740;2022-09-17T14:28:16;6.75;;;1.65;;
14603;SDS011;7388;51.078;13.740;2022-09-17T14:31:05;3.80;;;2.40;;
14603;SDS011;7388;51.078;13.740;2022-09-17T14:33:40;7.63;;;3.17;;
14603;SDS011;7388;51.078;13.740;2022-09-17T14:36:09;3.33;;;1.70;;
14603;SDS011;7388;51.078;13.740;2022-09-17T14:38:40;2.75;;;1.58;;
14603;SDS011;7388;51.078;13.740;2022-09-17T14:46:14;6.18;;;2.20;;
14603;SDS011;7388;51.078;13.740;2022-09-17T14:48:45;6.07;;;1.70;;
14603;SDS011;7388;51.078;13.740;2022-09-17T14:54:04;2.92;;;1.38;;
14603;SDS011;7388;51.078;13.740;2022-09-17T14:56:35;4.43;;;1.63;;
14603;SDS011;7388;51.078;13.740;2022-09-17T14:59:13;6.53;;;2.00;;
14603;SDS011;7388;51.078;13.740;2022-09-17T15:01:57;4.57;;;2.10;;
14603;SDS011;7388;51.078;13.740;2022-09-17T15:04:24;2.30;;;1.70;;
14603;SDS011;7388;51.078;13.740;2022-09-17T15:06:52;8.68;;;2.42;;
14603;SDS011;7388;51.078;13.740;2022-09-17T15:09:29;5.45;;;2.13;;
14603;SDS011;7388;51.078;13.740;2022-09-17T15:11:57;5.77;;;2.03;;
14603;SDS011;7388;51.078;13.740;2022-09-17T15:14:30;5.75;;;1.90;;
14603;SDS011;7388;51.078;13.740;2022-09-17T15:16:59;4.63;;;1.92;;
14603;SDS011;7388;51.078;13.740;2022-09-17T15:19:32;7.75;;;2.00;;
14603;SDS011;7388;51.078;13.740;2022-09-17T15:22:05;4.37;;;1.37;;
14603;SDS011;7388;51.078;13.740;2022-09-17T15:27:30;6.25;;;2.03;;
14603;SDS011;7388;51.078;13.740;2022-09-17T15:30:12;7.53;;;2.30;;
14603;SDS011;7388;51.078;13.740;2022-09-17T15:32:49;5.55;;;1.73;;
14603;SDS011;7388;51.078;13.740;2022-09-17T15:35:28;10.23;;;2.10;;
14603;SDS011;7388;51.078;13.740;2022-09-17T15:38:29;2.70;;;1.58;;
14603;SDS011;7388;51.078;13.740;2022-09-17T15:40:54;7.30;;;2.15;;
14603;SDS011;7388;51.078;13.740;2022-09-17T15:43:36;2.47;;;1.70;;
14603;SDS011;7388;51.078;13.740;2022-09-17T15:48:54;5.32;;;1.92;;
14603;SDS011;7388;51.078;13.740;2022-09-17T15:51:26;4.63;;;2.08;;
14603;SDS011;7388;51.078;13.740;2022-09-17T15:53:54;4.22;;;2.13;;
14603;SDS011;7388;51.078;13.740;2022-09-17T15:59:04;4.40;;;1.90;;
14603;SDS011;7388;51.078;13.740;2022-09-17T16:01:51;6.07;;;1.67;;
14603;SDS011;7388;51.078;13.740;2022-09-17T16:12:06;5.15;;;1.75;;
14603;SDS011;7388;51.078;13.740;2022-09-17T16:14:34;5.50;;;1.95;;
14603;SDS011;7388;51.078;13.740;2022-09-17T16:17:07;4.20;;;1.97;;
14603;SDS011;7388;51.078;13.740;2022-09-17T16:19:56;2.42;;;1.13;;
14603;SDS011;7388;51.078;13.740;2022-09-17T16:22:22;3.88;;;1.38;;
14603;SDS011;7388;51.078;13.740;2022-09-17T16:24:50;3.97;;;1.90;;
14603;SDS011;7388;51.078;13.740;2022-09-17T16:27:23;2.53;;;1.52;;
14603;SDS011;7388;51.078;13.740;2022-09-17T16:29:55;2.05;;;1.17;;
14603;SDS011;7388;51.078;13.740;2022-09-17T16:32:27;3.75;;;1.73;;
14603;SDS011;7388;51.078;13.740;2022-09-17T16:34:53;3.53;;;1.43;;
14603;SDS011;7388;51.078;13.740;2022-09-17T16:37:19;2.93;;;1.53;;
14603;SDS011;7388;51.078;13.740;2022-09-17T16:39:44;4.07;;;2.27;;
14603;SDS011;7388;51.078;13.740;2022-09-17T16:42:10;9.63;;;2.57;;
14603;SDS011;7388;51.078;13.740;2022-09-17T16:44:36;4.40;;;2.63;;
14603;SDS011;7388;51.078;13.740;2022-09-17T16:47:02;3.70;;;2.63;;
14603;SDS011;7388;51.078;13.740;2022-09-17T16:49:27;6.13;;;2.20;;
14603;SDS011;7388;51.078;13.740;2022-09-17T16:51:53;4.63;;;2.50;;
14603;SDS011;7388;51.078;13.740;2022-09-17T16:54:19;3.10;;;1.97;;
14603;SDS011;7388;51.078;13.740;2022-09-17T16:56:45;2.95;;;1.83;;
14603;SDS011;7388;51.078;13.740;2022-09-17T16:59:12;8.50;;;2.60;;
14603;SDS011;7388;51.078;13.740;2022-09-17T17:01:38;6.57;;;2.25;;
14603;SDS011;7388;51.078;13.740;2022-09-17T17:04:04;4.23;;;2.77;;
14603;SDS011;7388;51.078;13.740;2022-09-17T17:06:30;7.27;;;4.30;;
14603;SDS011;7388;51.078;13.740;2022-09-17T17:08:56;3.60;;;1.80;;
14603;SDS011;7388;51.078;13.740;2022-09-17T17:11:25;6.55;;;1.88;;
14603;SDS011;7388;51.078;13.740;2022-09-17T17:13:52;4.82;;;2.60;;
14603;SDS011;7388;51.078;13.740;2022-09-17T17:16:20;5.43;;;3.65;;
14603;SDS011;7388;51.078;13.740;2022-09-17T17:18:47;5.65;;;2.65;;
14603;SDS011;7388;51.078;13.740;2022-09-17T17:21:15;5.32;;;2.88;;
14603;SDS011;7388;51.078;13.740;2022-09-17T17:23:41;3.30;;;2.30;;
14603;SDS011;7388;51.078;13.740;2022-09-17T17:26:07;6.47;;;3.88;;
14603;SDS011;7388;51.078;13.740;2022-09-17T17:28:34;7.05;;;2.50;;
14603;SDS011;7388;51.078;13.740;2022-09-17T17:31:01;6.57;;;3.10;;
14603;SDS011;7388;51.078;13.740;2022-09-17T17:33:27;4.13;;;2.70;;
14603;SDS011;7388;51.078;13.740;2022-09-17T17:35:53;6.60;;;2.78;;
14603;SDS011;7388;51.078;13.740;2022-09-17T17:38:20;5.35;;;3.50;;
14603;SDS011;7388;51.078;13.740;2022-09-17T17:40:45;4.72;;;3.03;;
14603;SDS011;7388;51.078;13.740;2022-09-17T17:43:11;3.87;;;2.87;;
14603;SDS011;7388;51.078;13.740;2022-09-17T17:45:38;5.32;;;2.50;;
14603;SDS011;7388;51.078;13.740;2022-09-17T17:48:04;4.63;;;2.47;;
14603;SDS011;7388;51.078;13.740;2022-09-17T17:50:30;5.70;;;2.80;;
14603;SDS011;7388;51.078;13.740;2022-09-17T17:52:57;4.32;;;2.05;;
14603;SDS011;7388;51.078;13.740;2022-09-17T17:55:23;6.47;;;2.70;;
14603;SDS011;7388;51.078;13.740;2022-09-17T17:57:56;7.03;;;1.80;;
14603;SDS011;7388;51.078;13.740;2022-09-17T18:00:22;4.80;;;1.67;;
14603;SDS011;7388;51.078;13.740;2022-09-17T18:02:49;2.00;;;1.17;;
14603;SDS011;7388;51.078;13.740;2022-09-17T18:05:15;8.15;;;1.70;;
14603;SDS011;7388;51.078;13.740;2022-09-17T18:07:41;3.90;;;1.47;;
14603;SDS011;7388;51.078;13.740;2022-09-17T18:10:06;2.23;;;1.33;;
14603;SDS011;7388;51.078;13.740;2022-09-17T18:12:32;4.80;;;3.97;;
14603;SDS011;7388;51.078;13.740;2022-09-17T18:15:00;5.20;;;4.43;;
14603;SDS011;7388;51.078;13.740;2022-09-17T18:17:27;6.33;;;3.93;;
14603;SDS011;7388;51.078;13.740;2022-09-17T18:19:53;3.72;;;2.85;;
14603;SDS011;7388;51.078;13.740;2022-09-17T18:22:20;4.60;;;2.03;;
14603;SDS011;7388;51.078;13.740;2022-09-17T18:24:46;5.30;;;1.80;;
14603;SDS011;7388;51.078;13.740;2022-09-17T18:27:11;3.70;;;1.90;;
14603;SDS011;7388;51.078;13.740;2022-09-17T18:29:37;3.60;;;1.80;;
14603;SDS011;7388;51.078;13.740;2022-09-17T18:32:03;7.00;;;5.17;;
14603;SDS011;7388;51.078;13.740;2022-09-17T18:34:29;5.37;;;4.40;;
14603;SDS011;7388;51.078;13.740;2022-09-17T18:36:56;3.83;;;2.72;;
14603;SDS011;7388;51.078;13.740;2022-09-17T18:39:22;2.83;;;1.87;;
14603;SDS011;7388;51.078;13.740;2022-09-17T18:41:48;3.45;;;2.58;;
14603;SDS011;7388;51.078;13.740;2022-09-17T18:44:14;5.30;;;2.50;;
14603;SDS011;7388;51.078;13.740;2022-09-17T18:46:40;4.10;;;3.53;;
14603;SDS011;7388;51.078;13.740;2022-09-17T18:49:06;4.55;;;3.53;;